Terminal Aerodrome Forecast
Issued by NWS

Home | Current Version | Previous Version | Text Only | Print | Product List | Glossary On
Versions: 1 2 3 4 5 6 7 8 9 10 11 12 13 14 15 16 17
000
FTUS43 KAPX 070929 AAB
TAFAPN
TAF AMD
KAPN 070929Z 0709/0806 00000KT P6SM BKN180
     FM071400 16007KT P6SM SCT250
     FM071700 16010G17KT P6SM SCT050
     FM072000 15009G15KT P6SM BKN070
     FM080000 15006KT P6SM BKN060
     FM080300 16005KT P6SM BKN060 WS020/19030KT=

USA.gov is the U.S. government's official web portal to all federal, state and local government web resources and services.